This is the latest recevied weather packets stored in our database for station/object OK2CME-6. If no packets are shown the sender has not sent any weather packets the latest 10 day(s).
| Time | Temp. | Humidity | Pressure | Rain* | Wind** | Luminosity | Snow |
|---|---|---|---|---|---|---|---|
| 1777515950 | 0° C | 62% | 1031.5 hPa | 0 mm | - | 0 W/m² | - |
| 1777514750 | 0° C | 61% | 1031.4 hPa | 0 mm | - | 0 W/m² | - |
| 1777513550 | 0° C | 63% | 1031.2 hPa | 0 mm | - | 0 W/m² | - |
| 1777512350 | 0° C | 62% | 1031.4 hPa | 0 mm | - | 0 W/m² | - |
| 1777511150 | -0.56° C | 63% | 1031.3 hPa | 0 mm | - | 0 W/m² | - |
| 1777508750 | 0° C | 61% | 1031.2 hPa | 0 mm | - | 0 W/m² | - |
| 1777507550 | 0.56° C | 60% | 1031.5 hPa | 0 mm | - | 0 W/m² | - |
| 1777490750 | 3.33° C | 45% | 1029.7 hPa | 0 mm | - | 0 W/m² | - |
| 1777469150 | 9.44° C | 45% | 1027 hPa | 0 mm | - | 547 W/m² | - |
| 1777461950 | 10° C | 40% | 1026.7 hPa | 0 mm | - | 711 W/m² | - |
| 1777460750 | 11.11° C | 38% | 1026.5 hPa | 0 mm | - | 701 W/m² | - |
| 1777457150 | 9.44° C | 40% | 1026.9 hPa | 0 mm | - | 612 W/m² | - |
| 1777454750 | 8.89° C | 39% | 1027 hPa | 0 mm | - | 577 W/m² | - |
| 1777453550 | 8.89° C | 39% | 1027.2 hPa | 0 mm | - | 546 W/m² | - |
| 1777451150 | 7.78° C | 41% | 1026.9 hPa | 0 mm | - | 480 W/m² | - |
| 1777449950 | 7.78° C | 41% | 1027 hPa | 0 mm | - | 440 W/m² | - |
| 1777447550 | 7.22° C | 43% | 1026.7 hPa | 0 mm | - | 351 W/m² | - |
| 1777446350 | 6.67° C | 44% | 1026.5 hPa | 0 mm | - | 303 W/m² | - |
| 1777443950 | 6.11° C | 44% | 1026.4 hPa | 0 mm | - | 206 W/m² | - |
| 1777442750 | 5.56° C | 48% | 1026.5 hPa | 0 mm | - | 158 W/m² | - |
| 1777441550 | 5° C | 49% | 1026.5 hPa | 0 mm | - | 116 W/m² | - |
| 1777440350 | 4.44° C | 51% | 1026.1 hPa | 0 mm | - | 80 W/m² | - |
| 1777439150 | 3.33° C | 52% | 1026 hPa | 0 mm | - | 51 W/m² | - |
| 1777437950 | 2.78° C | 54% | 1025.8 hPa | 0 mm | - | 30 W/m² | - |
| 1777436750 | 2.22° C | 56% | 1025.7 hPa | 0 mm | - | 16 W/m² | - |
* Rain latest hour (hover to see other rain measurements)
** Current wind speed in m/s (hover to see current wind gust speed)